Time;durP1;ratioP1;P1;durP2;ratioP2;P2;SDS_P1;SDS_P2;PMS_P1;PMS_P2;Temp;Humidity;BMP_temperature;BMP_pressure;BME280_temperature;BME280_humidity;BME280_pressure;Samples;Min_cycle;Max_cycle;Signal;HPM_P1;HPM_P2
2022/10/10 00:00:59;;;;;;;3.87;2.73;;;;;;;;;;5047455;28;20575;-31
2022/10/10 00:03:26;;;;;;;3.73;2.80;;;;;;;;;;5036986;28;20214;-31
2022/10/10 00:05:54;;;;;;;3.10;2.57;;;;;;;;;;5043535;28;20216;-31
2022/10/10 00:08:21;;;;;;;3.80;3.00;;;;;;;;;;5042660;28;20386;-27
2022/10/10 00:10:48;;;;;;;3.00;2.63;;;;;;;;;;5040393;28;20218;-31
2022/10/10 00:13:16;;;;;;;3.03;2.80;;;;;;;;;;5047932;28;20198;-30
2022/10/10 00:15:44;;;;;;;3.47;2.57;;;;;;;;;;5049188;28;20204;-30
2022/10/10 00:18:11;;;;;;;4.50;2.67;;;;;;;;;;5042016;28;20292;-30
2022/10/10 00:20:38;;;;;;;3.90;3.20;;;;;;;;;;5040453;28;20225;-31
2022/10/10 00:23:05;;;;;;;4.43;2.90;;;;;;;;;;5050072;28;20299;-30
2022/10/10 00:28:02;;;;;;;2.77;2.57;;;;;;;;;;5060354;28;20267;-45
2022/10/10 00:30:30;;;;;;;4.23;2.97;;;;;;;;;;5079209;28;20220;-41
2022/10/10 00:32:58;;;;;;;3.57;2.40;;;;;;;;;;5079411;28;20205;-38
2022/10/10 00:35:25;;;;;;;3.97;2.70;;;;;;;;;;5088532;28;20269;-42
2022/10/10 00:37:53;;;;;;;4.20;3.20;;;;;;;;;;5090099;28;20196;-44
2022/10/10 00:40:20;;;;;;;5.30;3.07;;;;;;;;;;5089813;28;20232;-44
2022/10/10 00:42:48;;;;;;;3.17;2.60;;;;;;;;;;5080183;28;20194;-41
2022/10/10 00:45:33;;;;;;;3.07;2.70;;;;;;;;;;5089524;28;20220;-42
2022/10/10 00:48:03;;;;;;;8.37;3.03;;;;;;;;;;5079325;28;20205;-42
2022/10/10 00:50:31;;;;;;;4.53;2.73;;;;;;;;;;5081225;28;20226;-41
2022/10/10 00:52:59;;;;;;;6.17;2.90;;;;;;;;;;5090018;28;20196;-45
2022/10/10 00:55:26;;;;;;;3.23;2.93;;;;;;;;;;5085844;28;20207;-44
2022/10/10 00:57:53;;;;;;;3.07;2.50;;;;;;;;;;5089796;28;20204;-43
2022/10/10 01:00:21;;;;;;;4.90;2.80;;;;;;;;;;5087760;28;20220;-41
2022/10/10 01:02:49;;;;;;;5.00;3.00;;;;;;;;;;5085582;28;20200;-42
2022/10/10 01:05:16;;;;;;;4.13;3.10;;;;;;;;;;5095385;28;20211;-44
2022/10/10 01:07:45;;;;;;;5.37;3.13;;;;;;;;;;5087497;28;20205;-44
2022/10/10 01:10:15;;;;;;;4.73;2.60;;;;;;;;;;5094911;28;20246;-43
2022/10/10 01:12:49;;;;;;;4.10;2.93;;;;;;;;;;5093866;28;20291;-40
2022/10/10 01:15:20;;;;;;;4.30;2.37;;;;;;;;;;5079777;28;20202;-40
2022/10/10 01:17:49;;;;;;;5.07;3.00;;;;;;;;;;5086473;28;20197;-42
2022/10/10 01:20:33;;;;;;;2.80;2.33;;;;;;;;;;5081724;28;20316;-45
2022/10/10 01:23:13;;;;;;;5.67;3.17;;;;;;;;;;5092589;28;20208;-42
2022/10/10 01:25:44;;;;;;;6.73;3.37;;;;;;;;;;5088885;28;20200;-41
2022/10/10 01:28:20;;;;;;;3.33;2.90;;;;;;;;;;5088436;28;20196;-41
2022/10/10 01:30:49;;;;;;;3.60;2.77;;;;;;;;;;5092501;28;20217;-44
2022/10/10 01:33:17;;;;;;;3.43;2.97;;;;;;;;;;5083847;28;20224;-45
2022/10/10 01:35:49;;;;;;;5.20;2.63;;;;;;;;;;5084509;28;20299;-44
2022/10/10 01:38:22;;;;;;;5.87;2.90;;;;;;;;;;5089052;28;20205;-45
2022/10/10 01:40:52;;;;;;;2.87;2.60;;;;;;;;;;5092645;28;20220;-40
2022/10/10 01:43:21;;;;;;;3.70;2.83;;;;;;;;;;5083965;28;20200;-38
2022/10/10 01:45:49;;;;;;;7.20;3.13;;;;;;;;;;5096096;28;20207;-43
2022/10/10 01:48:18;;;;;;;4.93;2.73;;;;;;;;;;5088570;28;20213;-42
2022/10/10 01:50:52;;;;;;;4.13;3.00;;;;;;;;;;5092523;28;20209;-42
2022/10/10 01:53:24;;;;;;;4.93;3.10;;;;;;;;;;5088072;28;20286;-44
2022/10/10 01:55:56;;;;;;;3.77;2.80;;;;;;;;;;5086827;28;20196;-45
2022/10/10 01:58:32;;;;;;;5.30;3.37;;;;;;;;;;5092158;28;20262;-43
2022/10/10 02:01:01;;;;;;;3.20;2.73;;;;;;;;;;5092164;28;20216;-42
2022/10/10 02:03:30;;;;;;;6.43;3.30;;;;;;;;;;5084702;28;20201;-43
2022/10/10 02:06:00;;;;;;;4.77;2.43;;;;;;;;;;5084757;28;20215;-41
2022/10/10 02:08:31;;;;;;;4.13;2.87;;;;;;;;;;5091779;28;20203;-42
2022/10/10 02:11:01;;;;;;;3.57;2.90;;;;;;;;;;5091945;28;20220;-41
2022/10/10 02:13:32;;;;;;;5.70;3.27;;;;;;;;;;5079680;28;20217;-42
2022/10/10 02:16:00;;;;;;;3.50;2.90;;;;;;;;;;5088349;28;20215;-41
2022/10/10 02:18:28;;;;;;;3.60;2.60;;;;;;;;;;5081201;28;20205;-45
2022/10/10 02:20:56;;;;;;;3.47;2.70;;;;;;;;;;5090473;28;20228;-44
2022/10/10 02:23:23;;;;;;;4.20;2.77;;;;;;;;;;5092083;28;20208;-43
2022/10/10 02:25:52;;;;;;;6.03;3.73;;;;;;;;;;5080404;28;20202;-39
2022/10/10 02:28:22;;;;;;;7.53;3.07;;;;;;;;;;5085923;28;20200;-42
2022/10/10 02:30:52;;;;;;;6.43;3.13;;;;;;;;;;5080357;28;20220;-44
2022/10/10 02:33:20;;;;;;;3.90;2.90;;;;;;;;;;5077461;28;20201;-43
2022/10/10 02:35:49;;;;;;;3.03;2.77;;;;;;;;;;5090654;28;20196;-40
2022/10/10 02:38:16;;;;;;;3.53;2.73;;;;;;;;;;5091481;28;20204;-40
2022/10/10 02:40:44;;;;;;;3.63;2.93;;;;;;;;;;5088299;28;20224;-44
2022/10/10 02:43:12;;;;;;;3.20;2.70;;;;;;;;;;5083179;28;20232;-39
2022/10/10 02:45:40;;;;;;;3.63;3.30;;;;;;;;;;5090115;28;20269;-40
2022/10/10 02:48:09;;;;;;;5.23;3.00;;;;;;;;;;5081595;28;20217;-43
2022/10/10 02:50:36;;;;;;;4.77;2.90;;;;;;;;;;5089761;28;20312;-42
2022/10/10 02:53:03;;;;;;;6.60;3.30;;;;;;;;;;5090997;28;20204;-39
2022/10/10 02:55:30;;;;;;;4.33;2.90;;;;;;;;;;5085323;28;20222;-44
2022/10/10 02:57:57;;;;;;;6.33;3.43;;;;;;;;;;5087363;28;20201;-38
2022/10/10 03:00:24;;;;;;;2.87;2.53;;;;;;;;;;5089125;28;20243;-42
2022/10/10 03:02:51;;;;;;;5.17;2.83;;;;;;;;;;5086573;28;20204;-44
2022/10/10 03:05:20;;;;;;;4.77;3.43;;;;;;;;;;5089321;28;20211;-42
2022/10/10 03:07:47;;;;;;;3.83;2.67;;;;;;;;;;5090559;28;20205;-44
2022/10/10 03:10:14;;;;;;;4.33;2.97;;;;;;;;;;5084603;28;20225;-45
2022/10/10 03:12:41;;;;;;;4.73;2.90;;;;;;;;;;5085040;28;20410;-44
2022/10/10 03:15:09;;;;;;;3.80;3.30;;;;;;;;;;5089526;28;20215;-42
2022/10/10 03:17:36;;;;;;;5.83;3.20;;;;;;;;;;5085197;28;20201;-42
2022/10/10 03:20:03;;;;;;;5.50;3.00;;;;;;;;;;5087709;28;20228;-42
2022/10/10 03:22:32;;;;;;;4.90;3.50;;;;;;;;;;5090342;28;20220;-38
2022/10/10 03:24:59;;;;;;;3.60;2.60;;;;;;;;;;5089090;28;20204;-46
2022/10/10 03:27:26;;;;;;;2.70;2.50;;;;;;;;;;5073685;28;20291;-42
2022/10/10 03:29:53;;;;;;;4.33;3.07;;;;;;;;;;5085468;28;20220;-43
2022/10/10 03:32:20;;;;;;;3.50;3.20;;;;;;;;;;5071002;28;20204;-42
2022/10/10 03:34:47;;;;;;;5.03;3.30;;;;;;;;;;5089773;28;20232;-43
2022/10/10 03:37:15;;;;;;;3.60;3.10;;;;;;;;;;5089988;28;20203;-43
2022/10/10 03:39:43;;;;;;;5.50;3.13;;;;;;;;;;5089751;28;20232;-45
2022/10/10 03:42:10;;;;;;;3.27;2.97;;;;;;;;;;5087922;28;20235;-45
2022/10/10 03:44:37;;;;;;;3.23;2.93;;;;;;;;;;5084364;28;20204;-45
2022/10/10 03:47:05;;;;;;;5.17;3.00;;;;;;;;;;5085361;28;20204;-42
2022/10/10 03:49:32;;;;;;;4.03;2.77;;;;;;;;;;5083907;28;20201;-43
2022/10/10 03:52:00;;;;;;;3.10;2.80;;;;;;;;;;5089708;28;20193;-38
2022/10/10 03:54:27;;;;;;;4.03;2.90;;;;;;;;;;5090035;28;20212;-42
2022/10/10 03:56:56;;;;;;;4.53;3.10;;;;;;;;;;5082475;28;20200;-42
2022/10/10 03:59:23;;;;;;;3.47;3.17;;;;;;;;;;5083026;28;20207;-43
2022/10/10 04:01:50;;;;;;;3.60;3.30;;;;;;;;;;5083589;28;20255;-43
2022/10/10 04:04:17;;;;;;;3.20;2.70;;;;;;;;;;5086373;28;20201;-42
2022/10/10 04:06:44;;;;;;;3.27;2.77;;;;;;;;;;5089423;28;20291;-43
2022/10/10 04:09:11;;;;;;;3.77;2.97;;;;;;;;;;5089347;28;20226;-41
2022/10/10 04:11:39;;;;;;;4.47;2.77;;;;;;;;;;5075808;28;20318;-41
2022/10/10 04:14:08;;;;;;;3.03;2.73;;;;;;;;;;5080704;28;20208;-42
2022/10/10 04:16:35;;;;;;;3.40;3.10;;;;;;;;;;5088849;28;20199;-44
2022/10/10 04:19:02;;;;;;;4.00;3.17;;;;;;;;;;5075793;28;20205;-44
2022/10/10 04:21:29;;;;;;;3.33;3.03;;;;;;;;;;5089279;28;20230;-39
2022/10/10 04:23:56;;;;;;;3.43;2.90;;;;;;;;;;5090051;28;20385;-44
2022/10/10 04:26:24;;;;;;;6.03;2.97;;;;;;;;;;5084531;28;20209;-41
2022/10/10 04:28:51;;;;;;;5.00;2.90;;;;;;;;;;5090052;28;20204;-43
2022/10/10 04:31:19;;;;;;;2.80;2.60;;;;;;;;;;5092919;28;20308;-41
2022/10/10 04:33:47;;;;;;;4.03;3.03;;;;;;;;;;5082633;28;20489;-41
2022/10/10 04:36:14;;;;;;;3.23;2.90;;;;;;;;;;5087336;28;20211;-42
2022/10/10 04:38:42;;;;;;;5.23;3.13;;;;;;;;;;5085902;28;20205;-43
2022/10/10 04:41:09;;;;;;;4.43;3.40;;;;;;;;;;5089801;28;20217;-45
2022/10/10 04:43:36;;;;;;;4.40;3.00;;;;;;;;;;5081346;28;20235;-39
2022/10/10 04:46:03;;;;;;;3.33;2.87;;;;;;;;;;5086773;28;20207;-39
2022/10/10 04:48:32;;;;;;;3.33;2.90;;;;;;;;;;5077762;28;20205;-42
2022/10/10 04:50:59;;;;;;;2.80;2.60;;;;;;;;;;5087543;28;20320;-42
2022/10/10 04:53:27;;;;;;;3.33;2.60;;;;;;;;;;5088593;28;20349;-43
2022/10/10 04:55:54;;;;;;;4.17;2.80;;;;;;;;;;5088947;28;20216;-39
2022/10/10 04:58:24;;;;;;;3.67;2.97;;;;;;;;;;5073600;28;20201;-44
2022/10/10 05:00:52;;;;;;;6.63;3.13;;;;;;;;;;5085063;28;20236;-40
2022/10/10 05:03:20;;;;;;;6.80;2.87;;;;;;;;;;5080571;28;20207;-40
2022/10/10 05:05:48;;;;;;;3.77;2.30;;;;;;;;;;5088454;28;20201;-44
2022/10/10 05:08:16;;;;;;;3.47;2.77;;;;;;;;;;5086011;28;20212;-41
2022/10/10 05:10:43;;;;;;;7.53;3.43;;;;;;;;;;5085955;28;20227;-44
2022/10/10 05:13:12;;;;;;;3.73;3.33;;;;;;;;;;5086987;28;20197;-41
2022/10/10 05:15:39;;;;;;;3.00;2.70;;;;;;;;;;5088638;28;20197;-45
2022/10/10 05:18:06;;;;;;;2.97;2.50;;;;;;;;;;5080527;28;20657;-40
2022/10/10 05:20:35;;;;;;;6.13;2.97;;;;;;;;;;5087798;28;20232;-43
2022/10/10 05:23:03;;;;;;;3.20;2.83;;;;;;;;;;5082576;28;20225;-42
2022/10/10 05:25:31;;;;;;;6.63;3.50;;;;;;;;;;5069844;28;20205;-44
2022/10/10 05:27:58;;;;;;;7.80;3.80;;;;;;;;;;5072853;28;20214;-42
2022/10/10 05:30:25;;;;;;;3.93;3.27;;;;;;;;;;5089157;28;20228;-43
2022/10/10 05:32:52;;;;;;;3.20;2.57;;;;;;;;;;5085058;28;20197;-42
2022/10/10 05:35:19;;;;;;;3.77;2.83;;;;;;;;;;5088562;28;20205;-42
2022/10/10 05:37:46;;;;;;;3.20;2.90;;;;;;;;;;5089021;28;20197;-42
2022/10/10 05:40:15;;;;;;;4.13;2.87;;;;;;;;;;5086415;28;20228;-43
2022/10/10 05:42:42;;;;;;;3.13;2.70;;;;;;;;;;5071582;28;20217;-45
2022/10/10 05:45:10;;;;;;;4.27;3.07;;;;;;;;;;5080643;28;20197;-41
2022/10/10 05:47:37;;;;;;;4.67;3.27;;;;;;;;;;5087671;28;20200;-41
2022/10/10 05:50:04;;;;;;;4.13;3.50;;;;;;;;;;5088780;28;20558;-45
2022/10/10 05:52:42;;;;;;;4.47;3.23;;;;;;;;;;5085487;28;20211;-43
2022/10/10 05:55:09;;;;;;;5.63;3.53;;;;;;;;;;5093578;28;20200;-43
2022/10/10 05:57:37;;;;;;;4.93;3.60;;;;;;;;;;5094622;28;20189;-40
2022/10/10 06:00:11;;;;;;;5.43;3.70;;;;;;;;;;5092130;28;20224;-41
2022/10/10 06:02:46;;;;;;;3.93;3.40;;;;;;;;;;5088969;28;20299;-42
2022/10/10 06:05:21;;;;;;;4.13;3.50;;;;;;;;;;5083681;28;20200;-45
2022/10/10 06:07:48;;;;;;;3.37;3.00;;;;;;;;;;5089277;28;20199;-41
2022/10/10 06:10:15;;;;;;;3.10;2.80;;;;;;;;;;5093725;28;20225;-43
2022/10/10 06:12:43;;;;;;;4.60;3.23;;;;;;;;;;5088980;28;20204;-41
2022/10/10 06:15:11;;;;;;;6.40;3.73;;;;;;;;;;5088656;28;20205;-44
2022/10/10 06:17:38;;;;;;;6.87;3.37;;;;;;;;;;5086814;28;20201;-46
2022/10/10 06:20:06;;;;;;;5.03;3.77;;;;;;;;;;5091580;28;20232;-42
2022/10/10 06:22:33;;;;;;;3.53;2.80;;;;;;;;;;5093473;28;20213;-41
2022/10/10 06:25:00;;;;;;;5.40;3.07;;;;;;;;;;5094067;28;20267;-39
2022/10/10 06:27:27;;;;;;;9.80;3.83;;;;;;;;;;5088855;28;20212;-41
2022/10/10 06:29:59;;;;;;;5.17;3.53;;;;;;;;;;5080932;28;20223;-43
2022/10/10 06:32:28;;;;;;;6.73;3.90;;;;;;;;;;5078663;28;20239;-43
2022/10/10 06:34:56;;;;;;;6.10;3.90;;;;;;;;;;5088344;28;20200;-45
2022/10/10 06:37:23;;;;;;;3.80;3.50;;;;;;;;;;5081203;28;20197;-42
2022/10/10 06:39:51;;;;;;;5.23;3.77;;;;;;;;;;5090501;28;20676;-42
2022/10/10 06:42:18;;;;;;;4.00;3.60;;;;;;;;;;5078889;28;20251;-43
2022/10/10 06:44:45;;;;;;;5.10;3.17;;;;;;;;;;5090035;28;20209;-44
2022/10/10 06:47:14;;;;;;;4.53;3.10;;;;;;;;;;5082717;28;20198;-40
2022/10/10 06:49:41;;;;;;;6.33;4.83;;;;;;;;;;5083325;28;20644;-41
2022/10/10 06:52:10;;;;;;;6.20;3.73;;;;;;;;;;5086122;28;20213;-37
2022/10/10 06:54:43;;;;;;;5.20;4.00;;;;;;;;;;5079013;28;20210;-44
2022/10/10 06:57:12;;;;;;;7.67;4.20;;;;;;;;;;5086311;28;20201;-39
2022/10/10 06:59:39;;;;;;;5.90;3.93;;;;;;;;;;5090863;28;20277;-43
2022/10/10 07:02:07;;;;;;;7.43;4.20;;;;;;;;;;5078094;28;20221;-40
2022/10/10 07:04:37;;;;;;;4.63;3.87;;;;;;;;;;5089075;28;20212;-40
2022/10/10 07:07:04;;;;;;;6.27;4.03;;;;;;;;;;5089296;28;20201;-42
2022/10/10 07:09:31;;;;;;;10.63;4.33;;;;;;;;;;5082788;28;20205;-44
2022/10/10 07:11:58;;;;;;;5.53;3.57;;;;;;;;;;5086007;28;20193;-41
2022/10/10 07:14:29;;;;;;;7.23;4.60;;;;;;;;;;5086385;28;20211;-45
2022/10/10 07:16:57;;;;;;;5.43;3.90;;;;;;;;;;5085319;28;20287;-43
2022/10/10 07:19:25;;;;;;;6.60;4.20;;;;;;;;;;5085634;28;20207;-43
2022/10/10 07:21:53;;;;;;;9.00;4.30;;;;;;;;;;5080567;28;20228;-41
2022/10/10 07:24:20;;;;;;;5.53;3.57;;;;;;;;;;5079186;28;20295;-45
2022/10/10 07:26:48;;;;;;;4.13;3.63;;;;;;;;;;5085485;28;20302;-38
2022/10/10 07:29:18;;;;;;;7.27;4.10;;;;;;;;;;5083982;28;20209;-45
2022/10/10 07:31:46;;;;;;;4.70;3.83;;;;;;;;;;5084050;28;20201;-39
2022/10/10 07:34:13;;;;;;;5.50;4.33;;;;;;;;;;5085370;28;20207;-39
2022/10/10 07:36:40;;;;;;;7.50;4.70;;;;;;;;;;5089838;28;20215;-43
2022/10/10 07:39:09;;;;;;;6.13;4.50;;;;;;;;;;5090227;28;20200;-42
2022/10/10 07:41:36;;;;;;;6.73;3.80;;;;;;;;;;5076168;28;20236;-39
2022/10/10 07:44:03;;;;;;;5.13;4.20;;;;;;;;;;5078700;28;20207;-39
2022/10/10 07:46:32;;;;;;;5.83;4.73;;;;;;;;;;5088916;28;20254;-44
2022/10/10 07:48:59;;;;;;;5.93;4.47;;;;;;;;;;5075964;28;20254;-40
2022/10/10 07:51:34;;;;;;;7.00;4.33;;;;;;;;;;5082621;28;20262;-43
2022/10/10 07:54:02;;;;;;;6.03;4.60;;;;;;;;;;5087034;28;20195;-44
2022/10/10 07:56:31;;;;;;;7.77;4.70;;;;;;;;;;5068321;28;20201;-43
2022/10/10 07:58:58;;;;;;;7.57;5.00;;;;;;;;;;5085392;28;20201;-45
2022/10/10 08:01:26;;;;;;;7.10;4.90;;;;;;;;;;5089326;28;20224;-44
2022/10/10 08:03:53;;;;;;;8.47;5.27;;;;;;;;;;5084728;28;20216;-42
2022/10/10 08:06:20;;;;;;;16.30;7.87;;;;;;;;;;5088496;28;20207;-43
2022/10/10 08:08:49;;;;;;;6.13;5.20;;;;;;;;;;5075746;28;20609;-38
2022/10/10 08:11:17;;;;;;;7.87;5.37;;;;;;;;;;5079525;28;20224;-40
2022/10/10 08:13:45;;;;;;;8.80;5.90;;;;;;;;;;5087111;28;20545;-42
2022/10/10 08:16:12;;;;;;;9.83;5.73;;;;;;;;;;5085846;28;20218;-43
2022/10/10 08:18:39;;;;;;;9.03;6.60;;;;;;;;;;5083644;28;20205;-42
2022/10/10 08:21:08;;;;;;;8.63;5.97;;;;;;;;;;5086867;28;20361;-41
2022/10/10 08:23:36;;;;;;;8.03;5.83;;;;;;;;;;5090060;28;20217;-45
2022/10/10 08:26:03;;;;;;;9.27;6.30;;;;;;;;;;5086541;28;20208;-46
2022/10/10 08:28:31;;;;;;;11.67;6.77;;;;;;;;;;5089868;28;20201;-42
2022/10/10 08:31:00;;;;;;;13.40;6.83;;;;;;;;;;5089677;28;20579;-45
2022/10/10 08:33:27;;;;;;;10.83;5.50;;;;;;;;;;5077044;28;20315;-40
2022/10/10 08:35:54;;;;;;;8.30;6.37;;;;;;;;;;5083184;28;20196;-42
2022/10/10 08:38:22;;;;;;;9.10;6.63;;;;;;;;;;5086393;28;20568;-43
2022/10/10 08:40:50;;;;;;;9.80;6.70;;;;;;;;;;5090353;28;20233;-44
2022/10/10 08:43:22;;;;;;;8.53;6.40;;;;;;;;;;5078906;28;20274;-41
2022/10/10 08:45:50;;;;;;;11.03;6.73;;;;;;;;;;5075946;28;20197;-44
2022/10/10 08:48:21;;;;;;;8.87;7.03;;;;;;;;;;5075853;28;20603;-39
2022/10/10 08:50:50;;;;;;;7.90;6.13;;;;;;;;;;5089179;28;20223;-40
2022/10/10 08:53:25;;;;;;;10.70;7.00;;;;;;;;;;5089450;28;20211;-35
2022/10/10 08:55:53;;;;;;;10.97;9.30;;;;;;;;;;5077658;28;20213;-37
2022/10/10 08:58:22;;;;;;;11.37;9.37;;;;;;;;;;5085851;28;20254;-39
2022/10/10 09:00:51;;;;;;;10.53;8.37;;;;;;;;;;5088483;28;20221;-38
2022/10/10 09:03:25;;;;;;;9.50;7.20;;;;;;;;;;5077639;28;20232;-36
2022/10/10 09:06:01;;;;;;;8.40;6.90;;;;;;;;;;5083327;28;20258;-42
2022/10/10 09:08:48;;;;;;;10.37;7.07;;;;;;;;;;5080040;28;20202;-42
2022/10/10 09:11:23;;;;;;;7.97;7.13;;;;;;;;;;5089484;28;20224;-43
2022/10/10 09:13:58;;;;;;;10.60;6.87;;;;;;;;;;5083901;28;20260;-38
2022/10/10 09:16:33;;;;;;;10.90;7.90;;;;;;;;;;5088326;28;20280;-44
2022/10/10 09:19:05;;;;;;;7.73;6.50;;;;;;;;;;5075970;28;20207;-37
2022/10/10 09:21:33;;;;;;;9.30;6.83;;;;;;;;;;5071842;28;20220;-39
2022/10/10 09:26:31;;;;;;;11.03;6.77;;;;;;;;;;5062457;28;20217;-40
2022/10/10 09:29:01;;;;;;;12.40;7.27;;;;;;;;;;5068119;28;20210;-37
2022/10/10 09:31:32;;;;;;;11.07;6.77;;;;;;;;;;5059788;28;20227;-41
2022/10/10 09:34:01;;;;;;;8.87;6.00;;;;;;;;;;5061067;28;20300;-33
2022/10/10 09:36:32;;;;;;;11.60;7.10;;;;;;;;;;5066546;28;20208;-36
2022/10/10 09:39:02;;;;;;;9.17;6.77;;;;;;;;;;5069222;28;20205;-41
2022/10/10 09:41:33;;;;;;;8.30;6.77;;;;;;;;;;5060148;28;20289;-38
2022/10/10 09:44:03;;;;;;;6.97;6.10;;;;;;;;;;5069166;28;20240;-38
2022/10/10 09:46:31;;;;;;;8.67;6.07;;;;;;;;;;5067679;28;20209;-38
2022/10/10 09:48:58;;;;;;;9.10;6.47;;;;;;;;;;5066288;28;20251;-39
2022/10/10 09:51:26;;;;;;;9.50;6.60;;;;;;;;;;5065526;28;20280;-39
2022/10/10 09:54:00;;;;;;;11.80;6.60;;;;;;;;;;5072125;28;20193;-40
2022/10/10 09:56:29;;;;;;;9.60;6.53;;;;;;;;;;5069615;28;20502;-42
2022/10/10 09:58:57;;;;;;;7.87;6.50;;;;;;;;;;5068378;28;20282;-37
2022/10/10 10:01:25;;;;;;;11.17;6.60;;;;;;;;;;5069429;28;20239;-40
2022/10/10 10:04:12;;;;;;;11.33;6.70;;;;;;;;;;5066141;28;20226;-38
2022/10/10 10:06:39;;;;;;;9.07;6.27;;;;;;;;;;5072377;28;20193;-34
2022/10/10 10:09:14;;;;;;;16.57;6.63;;;;;;;;;;5071796;28;20213;-40
2022/10/10 10:11:41;;;;;;;12.23;6.60;;;;;;;;;;5066475;28;20225;-38
2022/10/10 10:14:20;;;;;;;11.90;6.33;;;;;;;;;;5061347;28;20213;-32
2022/10/10 10:16:47;;;;;;;8.30;6.10;;;;;;;;;;5069503;28;20204;-40
2022/10/10 10:19:30;;;;;;;8.10;6.20;;;;;;;;;;5069584;28;20210;-40
2022/10/10 10:21:57;;;;;;;11.10;6.90;;;;;;;;;;5072010;28;20292;-36
2022/10/10 10:24:31;;;;;;;10.57;6.47;;;;;;;;;;5071895;28;20255;-40
2022/10/10 10:27:08;;;;;;;8.83;6.43;;;;;;;;;;5062260;28;20202;-39
2022/10/10 10:29:46;;;;;;;9.57;6.37;;;;;;;;;;5064489;28;20217;-37
2022/10/10 10:32:18;;;;;;;7.03;6.13;;;;;;;;;;5071219;28;20213;-37
2022/10/10 10:34:52;;;;;;;12.57;6.70;;;;;;;;;;5072612;28;20281;-41
2022/10/10 10:37:22;;;;;;;8.90;6.30;;;;;;;;;;5073755;28;20212;-38
2022/10/10 10:40:03;;;;;;;9.40;6.93;;;;;;;;;;5072460;28;20225;-39
2022/10/10 10:42:40;;;;;;;8.60;5.27;;;;;;;;;;5063240;28;20228;-40
2022/10/10 10:45:13;;;;;;;10.37;6.10;;;;;;;;;;5070967;28;20205;-36
2022/10/10 10:47:44;;;;;;;7.60;5.77;;;;;;;;;;5066519;28;20199;-35
2022/10/10 10:50:26;;;;;;;5.80;5.20;;;;;;;;;;5068309;28;20252;-42
2022/10/10 10:52:58;;;;;;;8.07;5.77;;;;;;;;;;5067774;28;20200;-34
2022/10/10 10:55:38;;;;;;;6.47;5.57;;;;;;;;;;5071081;28;20193;-39
2022/10/10 10:58:21;;;;;;;9.60;5.87;;;;;;;;;;5064141;28;20264;-40
2022/10/10 11:00:54;;;;;;;8.40;6.00;;;;;;;;;;5061597;28;20220;-39
2022/10/10 11:03:28;;;;;;;7.20;5.50;;;;;;;;;;5068024;28;20213;-38
2022/10/10 11:06:02;;;;;;;8.40;6.00;;;;;;;;;;5065724;28;20287;-44
2022/10/10 11:08:36;;;;;;;9.93;5.73;;;;;;;;;;5070638;28;20214;-41
2022/10/10 11:11:30;;;;;;;7.17;5.87;;;;;;;;;;5064525;28;20237;-37
2022/10/10 11:14:01;;;;;;;8.23;5.40;;;;;;;;;;5066805;28;20198;-37
2022/10/10 11:16:31;;;;;;;8.17;5.73;;;;;;;;;;5060874;28;20201;-36
2022/10/10 11:19:05;;;;;;;8.63;5.67;;;;;;;;;;5057644;28;20200;-33
2022/10/10 11:21:34;;;;;;;10.20;4.70;;;;;;;;;;5054952;28;20220;-40
2022/10/10 11:24:03;;;;;;;7.33;4.97;;;;;;;;;;5059496;28;20275;-37
2022/10/10 11:26:32;;;;;;;9.53;5.40;;;;;;;;;;5052768;28;20201;-35
2022/10/10 11:29:02;;;;;;;7.60;4.83;;;;;;;;;;5050429;28;20197;-39
2022/10/10 11:31:32;;;;;;;9.57;5.47;;;;;;;;;;5064657;28;20221;-38
2022/10/10 11:34:01;;;;;;;14.50;5.80;;;;;;;;;;5065848;28;20201;-35
2022/10/10 11:36:29;;;;;;;7.50;4.97;;;;;;;;;;5064727;28;20197;-35
2022/10/10 11:39:00;;;;;;;23.07;6.43;;;;;;;;;;5070461;28;20197;-42
2022/10/10 11:41:29;;;;;;;7.57;4.53;;;;;;;;;;5067712;28;20217;-36
2022/10/10 11:44:01;;;;;;;10.23;5.13;;;;;;;;;;5065575;28;20224;-37
2022/10/10 11:46:38;;;;;;;10.07;5.57;;;;;;;;;;5067000;28;20240;-41
2022/10/10 11:49:08;;;;;;;12.67;6.10;;;;;;;;;;5060636;28;20283;-42
2022/10/10 11:51:43;;;;;;;5.53;4.80;;;;;;;;;;5069690;28;20259;-38
2022/10/10 11:54:16;;;;;;;7.93;6.10;;;;;;;;;;5067878;28;20250;-39
2022/10/10 11:56:45;;;;;;;8.90;5.73;;;;;;;;;;5063355;28;20203;-40
2022/10/10 11:59:17;;;;;;;6.43;4.40;;;;;;;;;;5067381;28;20205;-39
2022/10/10 12:01:47;;;;;;;6.00;4.70;;;;;;;;;;5071675;28;20211;-37
2022/10/10 12:04:14;;;;;;;6.57;4.40;;;;;;;;;;5070200;28;20221;-39
2022/10/10 12:06:44;;;;;;;5.43;4.30;;;;;;;;;;5071783;28;20250;-36
2022/10/10 12:09:17;;;;;;;5.77;4.33;;;;;;;;;;5069432;28;20194;-40
2022/10/10 12:11:45;;;;;;;7.60;4.00;;;;;;;;;;5059102;28;20213;-40
2022/10/10 12:14:16;;;;;;;8.03;4.63;;;;;;;;;;5064609;28;20204;-40
2022/10/10 12:16:45;;;;;;;11.90;4.30;;;;;;;;;;5070606;28;20197;-40
2022/10/10 12:19:17;;;;;;;8.77;4.60;;;;;;;;;;5069174;28;20255;-41
2022/10/10 12:21:55;;;;;;;5.57;3.57;;;;;;;;;;5068920;28;20208;-43
2022/10/10 12:24:25;;;;;;;5.90;3.63;;;;;;;;;;5071603;28;20225;-39
2022/10/10 12:27:26;;;;;;;3.63;3.30;;;;;;;;;;5069708;28;20209;-39
2022/10/10 12:30:12;;;;;;;6.77;3.57;;;;;;;;;;5060379;28;20286;-37
2022/10/10 12:32:44;;;;;;;3.93;2.90;;;;;;;;;;5062461;28;20251;-40
2022/10/10 12:35:26;;;;;;;7.80;4.17;;;;;;;;;;5071985;28;20208;-38
2022/10/10 12:38:08;;;;;;;8.13;3.70;;;;;;;;;;5068006;28;20190;-36
2022/10/10 12:40:55;;;;;;;5.20;3.57;;;;;;;;;;5062351;28;20316;-35
2022/10/10 12:43:23;;;;;;;5.20;2.87;;;;;;;;;;5071443;28;20205;-38
2022/10/10 12:45:58;;;;;;;6.33;3.53;;;;;;;;;;5066909;28;20295;-36
2022/10/10 12:48:27;;;;;;;4.30;2.77;;;;;;;;;;5066165;28;20246;-40
2022/10/10 12:50:55;;;;;;;5.20;3.27;;;;;;;;;;5062128;28;20300;-37
2022/10/10 12:53:24;;;;;;;5.90;2.60;;;;;;;;;;5069677;28;20205;-41
2022/10/10 12:55:52;;;;;;;3.97;2.87;;;;;;;;;;5067632;28;20205;-41
2022/10/10 12:58:22;;;;;;;5.60;2.70;;;;;;;;;;5068875;28;20288;-34
2022/10/10 13:00:50;;;;;;;9.67;3.27;;;;;;;;;;5076438;28;20316;-41
2022/10/10 13:03:19;;;;;;;3.67;2.80;;;;;;;;;;5068702;28;20202;-41
2022/10/10 13:05:49;;;;;;;6.07;2.90;;;;;;;;;;5064554;28;20207;-44
2022/10/10 13:08:18;;;;;;;5.63;2.63;;;;;;;;;;5066231;28;20208;-40
2022/10/10 13:11:03;;;;;;;7.80;2.80;;;;;;;;;;5064600;28;20217;-40
2022/10/10 13:13:30;;;;;;;4.70;2.47;;;;;;;;;;5069249;28;20205;-39
2022/10/10 13:15:58;;;;;;;5.00;2.73;;;;;;;;;;5068349;28;20202;-34
2022/10/10 13:18:33;;;;;;;5.00;2.67;;;;;;;;;;5067062;28;20293;-42
2022/10/10 13:21:02;;;;;;;7.30;3.20;;;;;;;;;;5071597;28;20228;-43
2022/10/10 13:23:29;;;;;;;4.57;2.70;;;;;;;;;;5065833;28;20227;-39
2022/10/10 13:25:57;;;;;;;8.37;2.97;;;;;;;;;;5075110;28;20280;-35
2022/10/10 13:28:24;;;;;;;4.73;2.37;;;;;;;;;;5075859;28;20205;-33
2022/10/10 13:30:51;;;;;;;4.13;2.50;;;;;;;;;;5069058;28;20218;-37
2022/10/10 13:33:20;;;;;;;6.60;2.77;;;;;;;;;;5057799;28;20202;-43
2022/10/10 13:35:49;;;;;;;4.43;2.60;;;;;;;;;;5071485;28;20215;-38
2022/10/10 13:38:18;;;;;;;6.87;2.47;;;;;;;;;;5069723;28;20583;-39
2022/10/10 13:40:46;;;;;;;11.30;3.10;;;;;;;;;;5068335;28;20217;-37
2022/10/10 13:43:14;;;;;;;4.67;2.43;;;;;;;;;;5070214;28;20209;-41
2022/10/10 13:45:45;;;;;;;7.63;2.33;;;;;;;;;;5064042;28;20221;-40
2022/10/10 13:48:17;;;;;;;3.93;2.57;;;;;;;;;;5067021;28;20304;-38
2022/10/10 13:50:52;;;;;;;5.17;2.40;;;;;;;;;;5069852;28;20233;-36
2022/10/10 13:53:24;;;;;;;7.97;2.40;;;;;;;;;;5073497;28;20205;-36
2022/10/10 13:55:51;;;;;;;8.27;2.57;;;;;;;;;;5068994;28;20201;-37
2022/10/10 13:58:19;;;;;;;7.50;2.40;;;;;;;;;;5071442;28;20209;-37
2022/10/10 14:00:54;;;;;;;7.80;2.43;;;;;;;;;;5073783;28;20256;-36
2022/10/10 14:03:22;;;;;;;15.33;2.93;;;;;;;;;;5068170;28;20201;-38
2022/10/10 14:05:49;;;;;;;10.00;2.47;;;;;;;;;;5070717;28;20264;-37
2022/10/10 14:08:18;;;;;;;7.93;2.40;;;;;;;;;;5070752;28;20205;-36
2022/10/10 14:10:57;;;;;;;6.73;2.17;;;;;;;;;;5066057;28;20218;-38
2022/10/10 14:13:24;;;;;;;9.40;2.47;;;;;;;;;;5066667;28;20205;-39
2022/10/10 14:15:51;;;;;;;6.33;3.03;;;;;;;;;;5066840;28;20288;-40
2022/10/10 14:18:21;;;;;;;8.80;2.87;;;;;;;;;;5061530;28;20232;-35
2022/10/10 14:20:48;;;;;;;9.77;2.30;;;;;;;;;;5071194;28;20315;-41
2022/10/10 14:23:16;;;;;;;8.97;2.40;;;;;;;;;;5057676;28;20205;-42
2022/10/10 14:25:43;;;;;;;4.50;2.30;;;;;;;;;;5071718;28;20221;-37
2022/10/10 14:28:37;;;;;;;6.27;2.40;;;;;;;;;;5074335;28;20227;-34
2022/10/10 14:31:27;;;;;;;9.57;2.37;;;;;;;;;;5068789;28;20233;-37
2022/10/10 14:33:55;;;;;;;7.40;2.20;;;;;;;;;;5065700;28;20201;-38
2022/10/10 14:36:22;;;;;;;9.00;2.17;;;;;;;;;;5073138;28;20205;-33
2022/10/10 14:38:50;;;;;;;7.63;3.10;;;;;;;;;;5072805;28;20219;-40
2022/10/10 14:41:17;;;;;;;6.83;2.30;;;;;;;;;;5070833;28;20233;-40
2022/10/10 14:43:44;;;;;;;14.93;2.20;;;;;;;;;;5059847;28;20229;-36
2022/10/10 14:46:13;;;;;;;8.37;2.30;;;;;;;;;;5064248;28;20232;-38
2022/10/10 14:48:41;;;;;;;4.67;2.70;;;;;;;;;;5064255;28;20202;-35
2022/10/10 14:51:10;;;;;;;5.90;2.00;;;;;;;;;;5061702;28;20259;-39
2022/10/10 14:53:37;;;;;;;7.77;2.40;;;;;;;;;;5071132;28;20204;-39
2022/10/10 14:56:04;;;;;;;7.53;2.40;;;;;;;;;;5071870;28;20312;-38
2022/10/10 14:58:31;;;;;;;9.67;2.47;;;;;;;;;;5067493;28;20233;-36
2022/10/10 15:00:59;;;;;;;6.67;2.33;;;;;;;;;;5068077;28;20221;-37